Time;durP1;ratioP1;P1;durP2;ratioP2;P2;SDS_P1;SDS_P2;PMS_P1;PMS_P2;Temp;Humidity;BMP_temperature;BMP_pressure;BME280_temperature;BME280_humidity;BME280_pressure;Samples;Min_cycle;Max_cycle;Signal;HPM_P1;HPM_P2
2023/10/04 00:00:20;;;;;;;1.6;1.2;;;;;;;14.31;91.23926;949.0034;;;;
2023/10/04 00:02:46;;;;;;;3.9;1.3;;;;;;;14.36;91.75781;949.0289;;;;
2023/10/04 00:05:10;;;;;;;2.4;1.4;;;;;;;14.34;91.71973;949.0408;;;;
2023/10/04 00:07:39;;;;;;;3.3;1.3;;;;;;;14.13;91.75391;949.0402;;;;
2023/10/04 00:10:05;;;;;;;3;1.5;;;;;;;14.18;92.44336;948.907;;;;
2023/10/04 00:12:27;;;;;;;2.1;1.4;;;;;;;14.25;92.22852;948.9338;;;;
2023/10/04 00:14:54;;;;;;;2.5;1.4;;;;;;;14.24;91.70801;948.9425;;;;
2023/10/04 00:17:19;;;;;;;2.2;1.3;;;;;;;14.21;91.86328;948.9531;;;;
2023/10/04 00:19:44;;;;;;;2;1.3;;;;;;;14.32;92.46191;948.9307;;;;
2023/10/04 00:22:13;;;;;;;2.1;1.3;;;;;;;14.4;91.52539;948.9317;;;;
2023/10/04 00:24:38;;;;;;;2.4;1.5;;;;;;;14.11;91.69434;948.834;;;;
2023/10/04 00:27:04;;;;;;;1.9;1.3;;;;;;;14.01;92.96094;948.8324;;;;
2023/10/04 00:29:30;;;;;;;2.2;1.4;;;;;;;14.06;93.45605;948.9111;;;;
2023/10/04 00:31:56;;;;;;;3.4;1.6;;;;;;;14.09;92.90918;948.9083;;;;
2023/10/04 00:34:22;;;;;;;2.5;1.4;;;;;;;13.96;92.92871;948.9111;;;;
2023/10/04 00:36:48;;;;;;;1.9;1.4;;;;;;;13.87;93.26367;948.8937;;;;
2023/10/04 00:39:13;;;;;;;2.3;1.4;;;;;;;14;93.60352;948.8371;;;;
2023/10/04 00:41:40;;;;;;;3.1;1.3;;;;;;;14.12;93.22559;948.8422;;;;
2023/10/04 00:44:05;;;;;;;2.1;1.5;;;;;;;14.07;92.03027;948.7567;;;;
2023/10/04 00:46:34;;;;;;;2.1;1.5;;;;;;;14.08;92.14551;948.7808;;;;
2023/10/04 00:48:56;;;;;;;3.4;1.6;;;;;;;14.16;92.41797;948.7402;;;;
2023/10/04 00:51:26;;;;;;;2;1.2;;;;;;;14.34;91.8457;948.7634;;;;
2023/10/04 00:53:49;;;;;;;2.6;1.3;;;;;;;14.31;92.9668;948.7118;;;;
2023/10/04 00:56:16;;;;;;;2.8;1.5;;;;;;;14.16;93.91309;948.652;;;;
2023/10/04 00:58:39;;;;;;;2.5;1.6;;;;;;;14.18;94.20508;948.6666;;;;
2023/10/04 01:01:06;;;;;;;2.3;1.2;;;;;;;14.25;93.15137;948.6647;;;;
2023/10/04 01:03:34;;;;;;;2.3;1.3;;;;;;;14.3;92.42383;948.6261;;;;
2023/10/04 01:05:54;;;;;;;2.3;1.5;;;;;;;14.35;92.13574;948.6916;;;;
2023/10/04 01:08:22;;;;;;;2.8;1.4;;;;;;;14.35;91.88281;948.7388;;;;
2023/10/04 01:10:49;;;;;;;2.6;1.4;;;;;;;14.38;91.99219;948.6582;;;;
2023/10/04 01:13:15;;;;;;;2;1.3;;;;;;;14.34;92.60449;948.7474;;;;
2023/10/04 01:15:39;;;;;;;2.3;1.4;;;;;;;14.35;92.6084;948.7508;;;;
2023/10/04 01:18:02;;;;;;;2.2;1.4;;;;;;;14.21;93.11816;948.7336;;;;
2023/10/04 01:20:30;;;;;;;2.5;1.3;;;;;;;14.14;93.18555;948.6839;;;;
2023/10/04 01:22:54;;;;;;;3;1.5;;;;;;;14.13;92.36426;948.6644;;;;
2023/10/04 01:25:20;;;;;;;3.3;1.6;;;;;;;13.94;92.46387;948.6482;;;;
2023/10/04 01:27:47;;;;;;;2.2;1.5;;;;;;;14.02;92.58301;948.6462;;;;
2023/10/04 01:30:13;;;;;;;2.8;1.5;;;;;;;14.04;92.58691;948.632;;;;
2023/10/04 01:32:37;;;;;;;2.4;1.5;;;;;;;14.07;92.30664;948.6541;;;;
2023/10/04 01:35:05;;;;;;;2;1.2;;;;;;;14.11;92.16504;948.6394;;;;
2023/10/04 01:37:31;;;;;;;2.7;1.3;;;;;;;14.11;92.29297;948.5793;;;;
2023/10/04 01:39:56;;;;;;;2.8;1.5;;;;;;;14.03;92.74609;948.588;;;;
2023/10/04 01:42:19;;;;;;;2;1.5;;;;;;;13.95;92.83398;948.5667;;;;
2023/10/04 01:44:44;;;;;;;2.6;1.4;;;;;;;13.82;93.27734;948.601;;;;
2023/10/04 01:47:10;;;;;;;2.7;1.4;;;;;;;13.76;93.22949;948.5957;;;;
2023/10/04 01:49:35;;;;;;;2.4;1.5;;;;;;;13.77;93.24316;948.5399;;;;
2023/10/04 01:52:02;;;;;;;2.8;2;;;;;;;13.8;93.29492;948.5619;;;;
2023/10/04 01:54:30;;;;;;;2.9;1.5;;;;;;;13.78;93.09473;948.504;;;;
2023/10/04 01:56:52;;;;;;;2.4;1.4;;;;;;;13.81;92.83594;948.4844;;;;
2023/10/04 01:59:19;;;;;;;1.9;1.4;;;;;;;13.63;94.02051;948.4724;;;;
2023/10/04 02:01:45;;;;;;;2.2;1.3;;;;;;;13.55;94.73926;948.4397;;;;
2023/10/04 02:04:11;;;;;;;2.2;1.3;;;;;;;13.57;94.43066;948.2686;;;;
2023/10/04 02:06:37;;;;;;;2.6;1.5;;;;;;;13.56;94.04883;948.2869;;;;
2023/10/04 02:09:11;;;;;;;2.1;1.3;;;;;;;13.58;93.91699;948.3193;;;;
2023/10/04 02:11:31;;;;;;;2.2;1.5;;;;;;;13.64;93.6875;948.2908;;;;
2023/10/04 02:14:00;;;;;;;2.2;1.4;;;;;;;13.57;93.16602;948.2896;;;;
2023/10/04 02:16:26;;;;;;;2.9;1.4;;;;;;;13.53;93.27441;948.2009;;;;
2023/10/04 02:18:53;;;;;;;1.8;1.4;;;;;;;13.61;93.35938;948.2548;;;;
2023/10/04 02:21:20;;;;;;;3.5;1.2;;;;;;;13.66;93.50879;948.1967;;;;
2023/10/04 02:23:45;;;;;;;2.6;1.5;;;;;;;13.73;93.32715;948.1559;;;;
2023/10/04 02:26:10;;;;;;;1.7;1.4;;;;;;;13.54;93.10254;948.1635;;;;
2023/10/04 02:28:35;;;;;;;1.8;1.1;;;;;;;13.36;93.63867;948.1422;;;;
2023/10/04 02:31:03;;;;;;;2;1.3;;;;;;;13.35;92.74023;948.1396;;;;
2023/10/04 02:33:32;;;;;;;2.2;1.4;;;;;;;13.31;93.39648;948.079;;;;
2023/10/04 02:35:53;;;;;;;2.9;1.6;;;;;;;13.19;95.05859;948.1305;;;;
2023/10/04 02:38:23;;;;;;;2.5;1.4;;;;;;;13.23;95.03613;948.0731;;;;
2023/10/04 02:40:46;;;;;;;2.4;1.3;;;;;;;13.25;95.04004;948.1678;;;;
2023/10/04 02:43:15;;;;;;;4.3;1.7;;;;;;;13.28;94.20898;948.1547;;;;
2023/10/04 02:45:38;;;;;;;2.3;1.3;;;;;;;13.17;93.81543;948.1403;;;;
2023/10/04 02:48:04;;;;;;;2.3;1.3;;;;;;;13.12;94.0918;948.1834;;;;
2023/10/04 02:50:29;;;;;;;3.3;1.7;;;;;;;13.15;93.81152;948.1369;;;;
2023/10/04 02:52:56;;;;;;;2.2;1.6;;;;;;;13.18;94.34668;948.132;;;;
2023/10/04 02:55:20;;;;;;;3.5;1.6;;;;;;;13.23;94.17383;948.1786;;;;
2023/10/04 02:57:47;;;;;;;2.2;1.5;;;;;;;13.34;93.8877;948.1755;;;;
2023/10/04 03:00:17;;;;;;;2.5;1.7;;;;;;;13.39;93.71289;948.2283;;;;
2023/10/04 03:02:38;;;;;;;2.3;1.5;;;;;;;13.42;93.37598;948.1834;;;;
2023/10/04 03:05:05;;;;;;;1.8;1.5;;;;;;;13.53;92.87012;948.1978;;;;
2023/10/04 03:07:31;;;;;;;3.8;1.9;;;;;;;13.51;92.4873;948.2111;;;;
2023/10/04 03:09:56;;;;;;;2.7;1.7;;;;;;;13.54;91.81445;948.2187;;;;
2023/10/04 03:12:20;;;;;;;2.4;1.5;;;;;;;13.52;91.72852;948.2551;;;;
2023/10/04 03:14:47;;;;;;;3;1.4;;;;;;;13.37;91.6748;948.2847;;;;
2023/10/04 03:17:15;;;;;;;2.3;1.4;;;;;;;13.33;91.83984;948.269;;;;
2023/10/04 03:19:37;;;;;;;1.8;1.5;;;;;;;13.3;92.31641;948.2869;;;;
2023/10/04 03:22:04;;;;;;;1.8;1.3;;;;;;;13.18;92.8877;948.3056;;;;
2023/10/04 03:24:29;;;;;;;4.3;1.5;;;;;;;13.16;93.71973;948.3113;;;;
2023/10/04 03:26:54;;;;;;;2.2;1.5;;;;;;;13.18;93.50781;948.2928;;;;
2023/10/04 03:29:22;;;;;;;2.6;1.7;;;;;;;13.03;94.32617;948.3102;;;;
2023/10/04 03:31:48;;;;;;;2.2;1.4;;;;;;;13.01;94.24219;948.2891;;;;
2023/10/04 03:34:16;;;;;;;1.6;1.2;;;;;;;12.97;93.85352;948.3577;;;;
2023/10/04 03:36:46;;;;;;;2.5;1.7;;;;;;;13;93.54883;948.4149;;;;
2023/10/04 03:39:09;;;;;;;2.1;1.2;;;;;;;12.92;94.02734;948.4336;;;;
2023/10/04 03:41:32;;;;;;;2.4;1.5;;;;;;;12.99;94.04102;948.3683;;;;
2023/10/04 03:43:58;;;;;;;2.4;1.4;;;;;;;13.02;93.39258;948.3794;;;;
2023/10/04 03:46:23;;;;;;;2.2;1.3;;;;;;;12.91;93.21973;948.4205;;;;
2023/10/04 03:48:48;;;;;;;2.4;1.1;;;;;;;12.87;93.89844;948.4366;;;;
2023/10/04 03:51:13;;;;;;;2.6;1.6;;;;;;;12.73;93.97266;948.4139;;;;
2023/10/04 03:53:42;;;;;;;2.2;1.5;;;;;;;12.75;94.19727;948.4456;;;;
2023/10/04 03:56:05;;;;;;;2.4;1.5;;;;;;;12.59;94.71191;948.4839;;;;
2023/10/04 03:58:31;;;;;;;2.6;1.4;;;;;;;12.6;94.93066;948.413;;;;
2023/10/04 04:02:39;;;;;;;2.2;1.5;;;;;;;12.69;94.52734;948.3391;;;;
2023/10/04 04:05:08;;;;;;;2.9;1.8;;;;;;;12.7;94.73633;948.3376;;;;
2023/10/04 04:07:29;;;;;;;2.4;1.5;;;;;;;12.63;94.82324;948.4179;;;;
2023/10/04 04:09:56;;;;;;;3.1;1.5;;;;;;;12.52;94.8457;948.4267;;;;
2023/10/04 04:12:23;;;;;;;2;1.3;;;;;;;12.37;95.3623;948.466;;;;
2023/10/04 04:14:48;;;;;;;3;1.8;;;;;;;12.41;95.65723;948.5002;;;;
2023/10/04 04:17:14;;;;;;;2.3;1.5;;;;;;;12.39;95.70117;948.5422;;;;
2023/10/04 04:19:39;;;;;;;2.3;2.1;;;;;;;12.29;95.77051;948.538;;;;
2023/10/04 04:22:05;;;;;;;2.6;1.4;;;;;;;12.3;96.14941;948.5078;;;;
2023/10/04 04:24:29;;;;;;;3;1.3;;;;;;;12.32;96.76074;948.5864;;;;
2023/10/04 04:26:58;;;;;;;2.3;1.4;;;;;;;12.45;96.24023;948.5668;;;;
2023/10/04 04:29:20;;;;;;;1.4;1.3;;;;;;;12.58;95.21289;948.6284;;;;
2023/10/04 04:31:45;;;;;;;4.5;1.8;;;;;;;12.68;94.5459;948.6272;;;;
2023/10/04 04:34:15;;;;;;;3.3;1.5;;;;;;;12.65;94.5752;948.6747;;;;
2023/10/04 04:36:39;;;;;;;2.1;1.5;;;;;;;12.6;95.18262;948.6175;;;;
2023/10/04 04:39:05;;;;;;;4.2;1.5;;;;;;;12.71;95.11621;948.6894;;;;
2023/10/04 04:41:29;;;;;;;1.7;1.5;;;;;;;12.75;93.21973;948.7285;;;;
2023/10/04 04:43:55;;;;;;;2.2;1.6;;;;;;;12.73;92.74512;948.7536;;;;
2023/10/04 04:46:22;;;;;;;2;1.3;;;;;;;12.73;92.42383;948.6409;;;;
2023/10/04 04:48:46;;;;;;;3.2;1.6;;;;;;;12.63;92.32227;948.7502;;;;
2023/10/04 04:51:17;;;;;;;3.1;1.5;;;;;;;12.57;92.48242;948.6682;;;;
2023/10/04 04:53:36;;;;;;;1.9;1.3;;;;;;;12.63;93.05664;948.7255;;;;
2023/10/04 04:56:08;;;;;;;2.1;1.4;;;;;;;12.62;92.66406;948.7469;;;;
2023/10/04 04:58:31;;;;;;;2.5;1.4;;;;;;;12.63;92.39063;948.7846;;;;
2023/10/04 05:01:00;;;;;;;3.6;1.5;;;;;;;12.55;92.80957;948.7828;;;;
2023/10/04 05:03:24;;;;;;;2.5;1.5;;;;;;;12.62;92.70996;948.6782;;;;
2023/10/04 05:05:49;;;;;;;2.1;1.4;;;;;;;12.71;92.06641;948.6239;;;;
2023/10/04 05:08:13;;;;;;;1.9;1.2;;;;;;;12.71;91.37598;948.7366;;;;
2023/10/04 05:10:39;;;;;;;1.9;1.5;;;;;;;12.7;91.37402;948.7308;;;;
2023/10/04 05:13:07;;;;;;;2.5;1.4;;;;;;;12.46;92.08105;948.6948;;;;
2023/10/04 05:15:32;;;;;;;3.1;1.4;;;;;;;12.47;92.03516;948.7158;;;;
2023/10/04 05:17:54;;;;;;;3.1;1.7;;;;;;;12.42;92.25488;948.6797;;;;
2023/10/04 05:20:21;;;;;;;1.7;1.5;;;;;;;12.41;92.91797;948.7048;;;;
2023/10/04 05:22:46;;;;;;;2.5;1.7;;;;;;;12.34;93.75098;948.7242;;;;
2023/10/04 05:25:11;;;;;;;3;2;;;;;;;12.35;94.05176;948.7084;;;;
2023/10/04 05:27:37;;;;;;;5.7;2.7;;;;;;;12.26;94.55957;948.7776;;;;
2023/10/04 05:30:04;;;;;;;4.3;2;;;;;;;12.22;94.13672;948.7922;;;;
2023/10/04 05:32:29;;;;;;;3.5;1.6;;;;;;;12.23;94.2666;948.7068;;;;
2023/10/04 05:34:55;;;;;;;2.5;1.8;;;;;;;12.21;94.16895;948.7492;;;;
2023/10/04 05:37:20;;;;;;;2.5;1.7;;;;;;;12.25;93.91309;948.7734;;;;
2023/10/04 05:39:47;;;;;;;4.5;1.7;;;;;;;12.21;93.81348;948.7333;;;;
2023/10/04 05:42:12;;;;;;;2.4;1.7;;;;;;;12.29;93.5127;948.7704;;;;
2023/10/04 05:44:39;;;;;;;2;1.6;;;;;;;12.36;93.22949;948.7949;;;;
2023/10/04 05:47:05;;;;;;;3.7;1.6;;;;;;;12.42;92.49609;948.8069;;;;
2023/10/04 05:49:31;;;;;;;2.4;1.4;;;;;;;12.44;92.4082;948.8678;;;;
2023/10/04 05:51:57;;;;;;;3.9;1.7;;;;;;;12.45;92.39844;948.9144;;;;
2023/10/04 05:54:22;;;;;;;3;1.8;;;;;;;12.39;92.34082;948.9961;;;;
2023/10/04 05:56:47;;;;;;;2.6;1.5;;;;;;;12.49;93.08496;948.9256;;;;
2023/10/04 05:59:15;;;;;;;3.1;1.7;;;;;;;12.67;93.54785;948.9899;;;;
2023/10/04 06:01:41;;;;;;;1.7;1.4;;;;;;;12.87;92.9248;949.0834;;;;
2023/10/04 06:04:05;;;;;;;2.8;1.4;;;;;;;12.91;92.53125;949.0521;;;;
2023/10/04 06:06:32;;;;;;;2.1;1.4;;;;;;;12.86;89.60547;949.1072;;;;
2023/10/04 06:08:57;;;;;;;2.9;1.6;;;;;;;12.92;90.90234;949.1106;;;;
2023/10/04 06:11:22;;;;;;;2.2;1.5;;;;;;;13;90.55176;949.1136;;;;
2023/10/04 06:13:50;;;;;;;3;1.6;;;;;;;13.13;90.3623;949.1666;;;;
2023/10/04 06:16:13;;;;;;;3.8;1.7;;;;;;;13.41;88.96094;949.243;;;;
2023/10/04 06:18:41;;;;;;;4;1.4;;;;;;;13.5;86.77148;949.2745;;;;
2023/10/04 06:21:05;;;;;;;3.8;1.4;;;;;;;13.6;86.81445;949.312;;;;
2023/10/04 06:23:32;;;;;;;2;1.4;;;;;;;13.77;86.80273;949.3381;;;;
2023/10/04 06:25:56;;;;;;;2.1;1.5;;;;;;;13.87;86.4873;949.3583;;;;
2023/10/04 06:28:22;;;;;;;2.4;1.6;;;;;;;13.98;83.8291;949.3446;;;;
2023/10/04 06:30:48;;;;;;;2.3;1.4;;;;;;;14.18;83.33594;949.4389;;;;
2023/10/04 06:33:15;;;;;;;2.7;1.6;;;;;;;14.39;85.20898;949.4348;;;;
2023/10/04 06:35:43;;;;;;;1.7;1.3;;;;;;;14.42;82.01172;949.4539;;;;
2023/10/04 06:38:04;;;;;;;1.9;1.4;;;;;;;14.41;82.20605;949.4543;;;;
2023/10/04 06:40:32;;;;;;;3.4;1.7;;;;;;;14.38;81.64746;949.5195;;;;
2023/10/04 06:42:57;;;;;;;1.4;1.1;;;;;;;14.45;80.94629;949.473;;;;
2023/10/04 06:45:24;;;;;;;1.4;1.1;;;;;;;14.32;79.51855;949.4508;;;;
2023/10/04 06:47:47;;;;;;;1.3;1.2;;;;;;;14.28;80.23535;949.4752;;;;
2023/10/04 06:50:18;;;;;;;1.9;1.1;;;;;;;13.79;81.79102;949.4233;;;;
2023/10/04 06:52:39;;;;;;;2.4;1.2;;;;;;;13.78;82.82422;949.4927;;;;
2023/10/04 06:55:08;;;;;;;2.3;1.2;;;;;;;14.12;83.33887;949.4518;;;;
2023/10/04 06:57:31;;;;;;;1.5;1.2;;;;;;;14.21;82.18945;949.4265;;;;
2023/10/04 06:59:56;;;;;;;1.3;0.9;;;;;;;14.08;82.0293;949.4857;;;;
2023/10/04 07:02:23;;;;;;;2.3;1.3;;;;;;;14.39;81.13281;949.4774;;;;
2023/10/04 07:04:47;;;;;;;1.9;1.2;;;;;;;14.46;80.73926;949.514;;;;
2023/10/04 07:07:12;;;;;;;1.9;1.1;;;;;;;14.58;78.16992;949.546;;;;
2023/10/04 07:09:37;;;;;;;1.5;1.1;;;;;;;14.68;77.7959;949.4705;;;;
2023/10/04 07:12:07;;;;;;;1.4;1;;;;;;;14.98;78.94434;949.462;;;;
2023/10/04 07:14:30;;;;;;;1.7;1.2;;;;;;;14.93;78.07129;949.3981;;;;
2023/10/04 07:16:56;;;;;;;1.7;1;;;;;;;14.9;78.42383;949.4716;;;;
2023/10/04 07:19:22;;;;;;;1.7;1.1;;;;;;;14.5;79.98926;949.492;;;;
2023/10/04 07:21:49;;;;;;;1.5;1;;;;;;;14.58;79.74902;949.5267;;;;
2023/10/04 07:24:14;;;;;;;3.1;1.1;;;;;;;14.3;79.88184;949.4994;;;;
2023/10/04 07:26:45;;;;;;;2.5;1.1;;;;;;;14.37;79.03125;949.5075;;;;
2023/10/04 07:29:07;;;;;;;1.6;1.2;;;;;;;14.4;78.83984;949.5101;;;;
2023/10/04 07:31:34;;;;;;;1.4;1.2;;;;;;;14.43;78.37402;949.5093;;;;
2023/10/04 07:33:58;;;;;;;1.4;1.2;;;;;;;14.66;77.61914;949.4229;;;;
2023/10/04 07:36:27;;;;;;;1.4;1.2;;;;;;;14.83;76.70605;949.4717;;;;
2023/10/04 07:38:54;;;;;;;2;1.2;;;;;;;14.98;75.48535;949.4131;;;;
2023/10/04 07:41:20;;;;;;;2.8;1.4;;;;;;;15.27;75.43164;949.3965;;;;
2023/10/04 07:43:46;;;;;;;2.2;1.3;;;;;;;15.53;74.64355;949.424;;;;
2023/10/04 07:46:52;;;;;;;2.2;1.3;;;;;;;15.45;73.09375;949.4016;;;;
2023/10/04 07:49:18;;;;;;;1.5;1;;;;;;;15.55;74.48535;949.3622;;;;
2023/10/04 07:51:43;;;;;;;2.5;1.2;;;;;;;15.98;71.44922;949.335;;;;
2023/10/04 07:54:08;;;;;;;1.9;1.2;;;;;;;15.92;72.3877;949.3097;;;;
2023/10/04 07:56:34;;;;;;;2.4;1.2;;;;;;;16.09;72.24121;949.2299;;;;
2023/10/04 07:59:01;;;;;;;2.9;1.4;;;;;;;16.12;71.30957;949.2783;;;;
2023/10/04 08:01:23;;;;;;;2;1.1;;;;;;;16.36;70.12402;949.3184;;;;
2023/10/04 08:03:49;;;;;;;3.1;1.1;;;;;;;16.23;71.81543;949.2873;;;;
2023/10/04 08:06:15;;;;;;;2.3;1.4;;;;;;;16.35;69.99219;949.238;;;;
2023/10/04 08:08:42;;;;;;;2.6;1.2;;;;;;;16.43;68.88574;949.2234;;;;
2023/10/04 08:11:07;;;;;;;1.9;1.2;;;;;;;16.81;70.24121;949.1981;;;;
2023/10/04 08:13:34;;;;;;;1.5;1.1;;;;;;;16.95;68.62988;949.2197;;;;
2023/10/04 08:16:00;;;;;;;1.4;1.2;;;;;;;17.36;65.62012;949.2073;;;;
2023/10/04 08:18:28;;;;;;;2.7;1.4;;;;;;;17.01;66.65723;949.2383;;;;
2023/10/04 08:20:52;;;;;;;1.7;1.3;;;;;;;16.98;66.96582;949.2245;;;;
2023/10/04 08:23:17;;;;;;;2.8;1.6;;;;;;;17.07;66.78223;949.217;;;;
2023/10/04 08:25:42;;;;;;;2;1.4;;;;;;;17.55;65.89258;949.1392;;;;
2023/10/04 08:28:09;;;;;;;4.2;1.2;;;;;;;17.58;63.58691;949.0683;;;;
2023/10/04 08:30:35;;;;;;;3.6;1.4;;;;;;;17.46;65.36816;949.1127;;;;
2023/10/04 08:33:03;;;;;;;1.8;1.1;;;;;;;17.79;63.7002;949.0623;;;;
2023/10/04 08:35:27;;;;;;;1.4;1.1;;;;;;;18.01;62.31445;949.093;;;;
2023/10/04 08:38:22;;;;;;;1.7;1.3;;;;;;;17.13;63.08301;949.0859;;;;
2023/10/04 08:40:53;;;;;;;2.4;1.4;;;;;;;17.17;68.08594;949.0441;;;;
2023/10/04 08:43:18;;;;;;;2.8;1.4;;;;;;;16.91;64.24219;948.9967;;;;
2023/10/04 08:45:46;;;;;;;1.7;1.3;;;;;;;17.48;65.03418;949.0425;;;;
2023/10/04 08:48:09;;;;;;;2.4;1.2;;;;;;;17.62;63.55859;948.959;;;;
2023/10/04 08:50:35;;;;;;;1.6;1.3;;;;;;;17.38;65.50684;948.9971;;;;
2023/10/04 08:53:00;;;;;;;2;1.3;;;;;;;17.17;62.69531;948.9975;;;;
2023/10/04 08:55:25;;;;;;;1.7;1.3;;;;;;;17.51;65.00488;949.0015;;;;
2023/10/04 08:57:51;;;;;;;2.5;1.6;;;;;;;17.71;61.50488;948.9995;;;;
2023/10/04 09:00:22;;;;;;;1.8;1.3;;;;;;;18.1;63.2334;949.014;;;;
2023/10/04 09:02:42;;;;;;;3;1.6;;;;;;;17.62;65.06641;948.9204;;;;
2023/10/04 09:05:14;;;;;;;1.9;1.4;;;;;;;17.55;61.43652;948.9137;;;;
2023/10/04 09:07:40;;;;;;;2.5;1.5;;;;;;;17.69;64.26465;948.8063;;;;
2023/10/04 09:10:07;;;;;;;2;1.4;;;;;;;17.99;61.74219;948.7843;;;;
2023/10/04 09:12:37;;;;;;;2.9;1.6;;;;;;;17.67;62.76465;948.7576;;;;
2023/10/04 09:14:58;;;;;;;4.5;1.7;;;;;;;17.49;65.39551;948.7639;;;;
2023/10/04 09:17:25;;;;;;;2.8;1.4;;;;;;;17.59;64.42383;948.6954;;;;
2023/10/04 09:19:50;;;;;;;2;1.3;;;;;;;17.78;62.81445;948.6731;;;;
2023/10/04 09:22:20;;;;;;;2.9;1.6;;;;;;;17.74;62.79785;948.6595;;;;
2023/10/04 09:24:42;;;;;;;2.3;1.4;;;;;;;17.61;64.4502;948.6792;;;;
2023/10/04 09:27:07;;;;;;;2.6;1.4;;;;;;;17.55;65.69531;948.6994;;;;
2023/10/04 09:29:33;;;;;;;1.7;1.5;;;;;;;17.62;61.44531;948.6755;;;;
2023/10/04 09:31:58;;;;;;;2.8;1.4;;;;;;;17.78;62.42188;948.6853;;;;
2023/10/04 09:34:24;;;;;;;2.2;1.2;;;;;;;17.77;62.11816;948.6119;;;;
2023/10/04 09:36:51;;;;;;;3.4;2.1;;;;;;;17.62;60.4375;948.5168;;;;
2023/10/04 09:39:23;;;;;;;2.5;1.6;;;;;;;17.66;60.72168;948.5168;;;;
2023/10/04 09:41:44;;;;;;;2.8;1.5;;;;;;;17.66;63.63477;948.5208;;;;
2023/10/04 09:44:08;;;;;;;3.5;1.8;;;;;;;17.72;61.99316;948.5129;;;;
2023/10/04 09:46:33;;;;;;;3.5;1.7;;;;;;;17.63;59.8584;948.4814;;;;
2023/10/04 09:49:00;;;;;;;2.6;1.5;;;;;;;17.71;64.75488;948.3728;;;;
2023/10/04 09:51:25;;;;;;;2.1;1.3;;;;;;;17.63;63.50195;948.3951;;;;
2023/10/04 09:53:50;;;;;;;4;1.3;;;;;;;17.74;64.02832;948.413;;;;
2023/10/04 09:56:16;;;;;;;2.5;1.5;;;;;;;17.77;62.46582;948.4227;;;;
2023/10/04 09:58:40;;;;;;;2.8;1.7;;;;;;;17.84;64.63477;948.3228;;;;
2023/10/04 10:01:11;;;;;;;2;1.5;;;;;;;18.12;62.48047;948.3183;;;;
2023/10/04 10:03:36;;;;;;;1.9;1.2;;;;;;;18.31;61.03223;948.3308;;;;
2023/10/04 10:06:01;;;;;;;3;1.6;;;;;;;18.54;59.71484;948.3178;;;;
2023/10/04 10:08:26;;;;;;;2;1.4;;;;;;;18.82;58.53027;948.3201;;;;
2023/10/04 10:10:52;;;;;;;4.1;1.5;;;;;;;18.56;60.6709;948.2992;;;;
2023/10/04 10:13:16;;;;;;;2.5;1.7;;;;;;;18.74;57.21582;948.2634;;;;
2023/10/04 10:15:43;;;;;;;2.5;1.5;;;;;;;18.33;60.47559;948.2411;;;;
2023/10/04 10:18:09;;;;;;;3.5;1.6;;;;;;;18.26;60.30469;948.198;;;;
2023/10/04 10:20:36;;;;;;;2.3;1.5;;;;;;;18.34;62.20898;948.1283;;;;
2023/10/04 10:23:01;;;;;;;4.4;1.6;;;;;;;18.16;61.45117;948.1311;;;;
2023/10/04 10:25:26;;;;;;;2.2;1.6;;;;;;;18.26;63.47754;948.0867;;;;
2023/10/04 10:27:51;;;;;;;3.4;1.7;;;;;;;18.54;59.96973;948.0444;;;;
2023/10/04 10:30:16;;;;;;;3.3;1.8;;;;;;;18.83;59.27734;948.004;;;;
2023/10/04 10:32:41;;;;;;;2.1;1.4;;;;;;;19.41;60.125;947.9386;;;;
2023/10/04 10:35:12;;;;;;;2;1.5;;;;;;;20.19;55.73535;947.8801;;;;
2023/10/04 10:37:38;;;;;;;2;1.2;;;;;;;20.56;52.23242;947.7587;;;;
2023/10/04 10:40:06;;;;;;;2.2;1.5;;;;;;;20.52;56.30371;947.8215;;;;
2023/10/04 10:42:28;;;;;;;2.8;1.4;;;;;;;21;52.87988;947.7788;;;;
2023/10/04 10:44:53;;;;;;;2.3;1.5;;;;;;;20.83;53.89941;947.6721;;;;
2023/10/04 10:47:19;;;;;;;2.1;1.5;;;;;;;20.22;55.62305;947.7149;;;;
2023/10/04 10:49:44;;;;;;;2.6;1.4;;;;;;;19.66;55.71484;947.6785;;;;
2023/10/04 10:52:09;;;;;;;2.6;1.5;;;;;;;19.89;56.57324;947.6149;;;;
2023/10/04 10:54:34;;;;;;;2.7;1.6;;;;;;;20;57.42676;947.5125;;;;
2023/10/04 10:57:02;;;;;;;2.7;1.8;;;;;;;19.49;60.43652;947.5084;;;;
2023/10/04 10:59:27;;;;;;;2.5;1.4;;;;;;;19.95;60.19727;947.5073;;;;
2023/10/04 11:01:52;;;;;;;2.1;1.2;;;;;;;19.83;58.08203;947.4433;;;;
2023/10/04 11:04:18;;;;;;;2.1;1.3;;;;;;;19.62;59.62891;947.3514;;;;
2023/10/04 11:06:43;;;;;;;2;1.4;;;;;;;19.39;59.42188;947.3451;;;;
2023/10/04 11:09:09;;;;;;;2.8;1.5;;;;;;;19.96;59.23047;947.3245;;;;
2023/10/04 11:11:33;;;;;;;3;1.5;;;;;;;20.46;59.11035;947.3079;;;;
2023/10/04 11:13:59;;;;;;;2.8;1.7;;;;;;;20.57;57.36035;947.2181;;;;
2023/10/04 11:16:24;;;;;;;2.2;1.6;;;;;;;20.82;58.24707;947.1627;;;;
2023/10/04 11:18:50;;;;;;;3.3;1.6;;;;;;;21.86;55.04395;947.1323;;;;
2023/10/04 11:21:16;;;;;;;3.3;1.6;;;;;;;22.67;51.61035;947.0994;;;;
2023/10/04 11:23:42;;;;;;;2.3;1.5;;;;;;;24.82;45.25586;947.0589;;;;
2023/10/04 11:26:08;;;;;;;2.1;1.4;;;;;;;26.66;39.43848;947.0373;;;;
2023/10/04 11:28:31;;;;;;;2.3;1.4;;;;;;;28.03;38.64453;947.0351;;;;
2023/10/04 11:30:58;;;;;;;2.5;1.5;;;;;;;29.74;35.57129;946.9654;;;;
2023/10/04 11:33:23;;;;;;;2.5;1.8;;;;;;;27.82;39.36133;946.9358;;;;
2023/10/04 11:35:52;;;;;;;1.5;1.2;;;;;;;28.86;37.22754;946.9303;;;;
2023/10/04 11:38:19;;;;;;;3.9;1.8;;;;;;;27.39;40.21387;946.8275;;;;
2023/10/04 11:40:44;;;;;;;3.4;1.6;;;;;;;26.8;41.37012;946.7964;;;;
2023/10/04 11:43:09;;;;;;;2.6;1.6;;;;;;;27.8;39.0166;946.7296;;;;
2023/10/04 11:45:34;;;;;;;2.7;1.6;;;;;;;29.27;36.27246;946.7051;;;;
2023/10/04 11:48:00;;;;;;;2.9;1.7;;;;;;;30.86;33.49512;946.6608;;;;
2023/10/04 11:50:36;;;;;;;2.8;1.5;;;;;;;33.41;29.64551;946.6895;;;;
2023/10/04 11:53:02;;;;;;;2.2;1.4;;;;;;;33.62;28.88867;946.6306;;;;
2023/10/04 11:55:26;;;;;;;3.5;1.5;;;;;;;33.05;29.54883;946.6926;;;;
2023/10/04 11:57:53;;;;;;;3;1.6;;;;;;;34.49;27.7627;946.6704;;;;
2023/10/04 12:00:18;;;;;;;2.4;1.7;;;;;;;32.98;29.58008;946.7015;;;;
2023/10/04 12:02:42;;;;;;;2.1;1.3;;;;;;;31.97;30.15039;946.6858;;;;
2023/10/04 12:05:18;;;;;;;3.4;1.6;;;;;;;32.65;29.64355;946.6711;;;;
2023/10/04 12:07:35;;;;;;;3;1.7;;;;;;;32.03;30.93359;946.6289;;;;
2023/10/04 12:10:00;;;;;;;3.7;1.5;;;;;;;32.31;30.34082;946.6755;;;;
2023/10/04 12:12:25;;;;;;;2.2;1.4;;;;;;;33.16;28.88379;946.5958;;;;
2023/10/04 12:14:50;;;;;;;1.9;1.5;;;;;;;29.43;35.33203;946.6083;;;;
2023/10/04 12:17:15;;;;;;;4.7;1.5;;;;;;;31.22;32.07422;946.5203;;;;
2023/10/04 12:19:41;;;;;;;3.4;1.5;;;;;;;31.67;31.71094;946.5164;;;;
2023/10/04 12:22:08;;;;;;;2.9;1.9;;;;;;;29.85;34.92383;946.4655;;;;
2023/10/04 12:24:32;;;;;;;2.1;1.2;;;;;;;31.61;31.69531;946.4832;;;;
2023/10/04 12:27:00;;;;;;;2.8;1.4;;;;;;;31.08;32.47168;946.4228;;;;
2023/10/04 12:29:29;;;;;;;1.9;1.5;;;;;;;32.76;29.51855;946.4135;;;;
2023/10/04 12:31:50;;;;;;;4.4;1.5;;;;;;;33.25;28.7334;946.4547;;;;
2023/10/04 12:34:14;;;;;;;2.9;1.6;;;;;;;32.42;30.44434;946.3773;;;;
2023/10/04 12:36:44;;;;;;;2.8;1.9;;;;;;;31.45;32.03027;946.4501;;;;
2023/10/04 12:39:08;;;;;;;2.5;1.6;;;;;;;30.79;32.29492;946.4095;;;;
2023/10/04 12:41:34;;;;;;;3;1.4;;;;;;;28.8;36.24707;946.3884;;;;
2023/10/04 12:43:59;;;;;;;2.1;1.4;;;;;;;27.92;37.23242;946.4478;;;;
2023/10/04 12:46:26;;;;;;;2.8;1.7;;;;;;;25.29;42.3877;946.3899;;;;
2023/10/04 12:48:50;;;;;;;3;1.7;;;;;;;25.46;42.80566;946.3965;;;;
2023/10/04 12:51:18;;;;;;;2.1;1.7;;;;;;;25.87;42.33691;946.4476;;;;
2023/10/04 12:53:44;;;;;;;2.4;1.5;;;;;;;27.1;39.29883;946.4604;;;;
2023/10/04 12:56:11;;;;;;;2.9;1.6;;;;;;;25.97;41.20996;946.4105;;;;
2023/10/04 12:58:37;;;;;;;2.6;1.6;;;;;;;24.32;44.58008;946.4533;;;;
2023/10/04 13:01:05;;;;;;;1.8;1.4;;;;;;;23.32;47.03223;946.5303;;;;
2023/10/04 13:03:31;;;;;;;3.5;1.8;;;;;;;22.76;48.19434;946.4938;;;;
2023/10/04 13:05:53;;;;;;;3.2;1.5;;;;;;;22.32;48.84961;946.5637;;;;
2023/10/04 13:08:20;;;;;;;3.2;1.8;;;;;;;22.06;49.8291;946.5506;;;;
2023/10/04 13:10:44;;;;;;;2.1;1.4;;;;;;;21.55;51.3877;946.5931;;;;
2023/10/04 13:13:12;;;;;;;2.4;1.6;;;;;;;21.23;51.80762;946.6998;;;;
2023/10/04 13:15:38;;;;;;;2.3;1.5;;;;;;;20.78;53.40234;946.6639;;;;
2023/10/04 13:18:07;;;;;;;2.4;1.8;;;;;;;20.31;55.31934;946.7883;;;;
2023/10/04 13:20:29;;;;;;;1.9;1.4;;;;;;;20.25;56.8291;946.7738;;;;
2023/10/04 13:22:55;;;;;;;2.9;1.6;;;;;;;20.23;55.98633;946.8008;;;;
2023/10/04 13:25:30;;;;;;;3.6;1.6;;;;;;;19.82;56.50586;946.8524;;;;
2023/10/04 13:27:47;;;;;;;2.6;1.7;;;;;;;19.73;56.38867;946.9528;;;;
2023/10/04 13:30:14;;;;;;;3.9;1.9;;;;;;;19.51;57.08398;946.8723;;;;
2023/10/04 13:32:39;;;;;;;2.8;1.5;;;;;;;19.27;56.99512;946.9344;;;;
2023/10/04 13:35:06;;;;;;;2.3;1.8;;;;;;;18.99;57.77246;946.863;;;;
2023/10/04 13:37:31;;;;;;;2.7;1.7;;;;;;;18.73;58.87988;946.8521;;;;
2023/10/04 13:39:57;;;;;;;2.8;1.6;;;;;;;18.85;58.59277;946.8175;;;;
2023/10/04 13:42:23;;;;;;;2.4;1.5;;;;;;;18.49;60.18457;946.8703;;;;
2023/10/04 13:44:47;;;;;;;3.6;1.9;;;;;;;18.52;60.01465;946.916;;;;
2023/10/04 13:47:15;;;;;;;3;2.1;;;;;;;18.68;59.61719;946.93;;;;
2023/10/04 13:49:40;;;;;;;3.6;1.8;;;;;;;18.78;59.31641;946.9445;;;;
2023/10/04 13:52:04;;;;;;;3.4;2;;;;;;;18.82;59.25098;946.9708;;;;
2023/10/04 13:54:29;;;;;;;4.7;1.8;;;;;;;18.69;61.11914;946.988;;;;
2023/10/04 13:56:55;;;;;;;3.3;1.7;;;;;;;18.77;59.74512;946.9954;;;;
2023/10/04 13:59:23;;;;;;;5.3;2.1;;;;;;;18.68;59.54883;947.0098;;;;
2023/10/04 14:01:51;;;;;;;3.1;2;;;;;;;18.45;59.52832;946.8455;;;;
2023/10/04 14:04:19;;;;;;;3.5;2.2;;;;;;;18.41;60.8125;946.8705;;;;
2023/10/04 14:06:45;;;;;;;2.7;1.6;;;;;;;18.43;59.9668;946.9497;;;;
2023/10/04 14:09:17;;;;;;;3.2;1.8;;;;;;;18.54;59.4707;946.9473;;;;
2023/10/04 14:11:34;;;;;;;4.5;1.8;;;;;;;18.52;59.44531;946.8894;;;;
2023/10/04 14:13:59;;;;;;;3;1.8;;;;;;;18.49;59.06836;946.9147;;;;
2023/10/04 14:16:29;;;;;;;2.5;1.7;;;;;;;18.6;59.75879;946.9227;;;;